sensor_id;sensor_type;location;lat;lon;timestamp;pressure;altitude;pressure_sealevel;temperature;humidity
9676;BME280;4876;42.656;23.292;2023-04-05T00:02:15;93843.69;;;0.06;91.43
9676;BME280;4876;42.656;23.292;2023-04-05T00:04:43;93841.63;;;0.03;91.48
9676;BME280;4876;42.656;23.292;2023-04-05T00:07:15;93836.69;;;0.06;91.04
9676;BME280;4876;42.656;23.292;2023-04-05T00:09:44;93834.91;;;0.07;91.63
9676;BME280;4876;42.656;23.292;2023-04-05T00:12:12;93835.94;;;0.06;92.17
9676;BME280;4876;42.656;23.292;2023-04-05T00:14:38;93836.19;;;-0.01;91.56
9676;BME280;4876;42.656;23.292;2023-04-05T00:17:07;93835.44;;;0.09;91.28
9676;BME280;4876;42.656;23.292;2023-04-05T00:19:34;93832.81;;;-0.02;91.45
9676;BME280;4876;42.656;23.292;2023-04-05T00:22:02;93833.31;;;-0.10;91.79
9676;BME280;4876;42.656;23.292;2023-04-05T00:24:29;93833.34;;;-0.05;92.66
9676;BME280;4876;42.656;23.292;2023-04-05T00:26:59;93839.03;;;0.03;92.04
9676;BME280;4876;42.656;23.292;2023-04-05T00:29:26;93830.28;;;0.14;92.10
9676;BME280;4876;42.656;23.292;2023-04-05T00:31:55;93835.69;;;0.12;91.55
9676;BME280;4876;42.656;23.292;2023-04-05T00:34:22;93833.06;;;-0.03;92.69
9676;BME280;4876;42.656;23.292;2023-04-05T00:36:49;93841.34;;;0.04;92.23
9676;BME280;4876;42.656;23.292;2023-04-05T00:39:15;93836.47;;;0.13;92.27
9676;BME280;4876;42.656;23.292;2023-04-05T00:41:42;93837.22;;;-0.02;92.40
9676;BME280;4876;42.656;23.292;2023-04-05T00:44:11;93843.69;;;-0.05;93.31
9676;BME280;4876;42.656;23.292;2023-04-05T00:46:38;93839.00;;;-0.13;92.73
9676;BME280;4876;42.656;23.292;2023-04-05T00:49:05;93840.31;;;-0.05;92.80
9676;BME280;4876;42.656;23.292;2023-04-05T00:51:32;93842.13;;;0.05;92.41
9676;BME280;4876;42.656;23.292;2023-04-05T00:54:00;93847.81;;;0.02;92.15
9676;BME280;4876;42.656;23.292;2023-04-05T00:56:28;93848.38;;;0.14;91.53
9676;BME280;4876;42.656;23.292;2023-04-05T00:58:55;93819.66;;;-0.05;91.33
9676;BME280;4876;42.656;23.292;2023-04-05T01:01:25;93850.16;;;0.08;91.38
9676;BME280;4876;42.656;23.292;2023-04-05T01:03:57;93851.19;;;0.12;91.06
9676;BME280;4876;42.656;23.292;2023-04-05T01:06:51;93851.19;;;0.17;90.68
9676;BME280;4876;42.656;23.292;2023-04-05T01:09:32;93850.69;;;0.20;90.30
9676;BME280;4876;42.656;23.292;2023-04-05T01:12:05;93847.88;;;0.32;89.76
9676;BME280;4876;42.656;23.292;2023-04-05T01:14:42;93852.75;;;0.23;89.49
9676;BME280;4876;42.656;23.292;2023-04-05T01:17:11;93859.25;;;0.26;89.31
9676;BME280;4876;42.656;23.292;2023-04-05T01:19:38;93853.00;;;0.12;89.09
9676;BME280;4876;42.656;23.292;2023-04-05T01:22:21;93851.47;;;0.21;88.85
9676;BME280;4876;42.656;23.292;2023-04-05T01:25:01;93848.34;;;0.09;88.98
9676;BME280;4876;42.656;23.292;2023-04-05T01:27:47;93863.09;;;0.08;89.38
9676;BME280;4876;42.656;23.292;2023-04-05T01:30:23;93861.00;;;0.10;89.70
9676;BME280;4876;42.656;23.292;2023-04-05T01:33:01;93860.78;;;0.07;89.51
9676;BME280;4876;42.656;23.292;2023-04-05T01:35:38;93854.56;;;0.13;89.17
9676;BME280;4876;42.656;23.292;2023-04-05T01:38:08;93841.09;;;0.01;89.22
9676;BME280;4876;42.656;23.292;2023-04-05T01:40:37;93853.53;;;0.09;89.58
9676;BME280;4876;42.656;23.292;2023-04-05T01:43:11;93852.47;;;-0.06;89.53
9676;BME280;4876;42.656;23.292;2023-04-05T01:45:40;93847.28;;;-0.06;89.48
9676;BME280;4876;42.656;23.292;2023-04-05T01:48:07;93849.38;;;0.03;88.83
9676;BME280;4876;42.656;23.292;2023-04-05T01:50:33;93856.09;;;0.04;89.26
9676;BME280;4876;42.656;23.292;2023-04-05T01:53:00;93847.28;;;-0.01;89.03
9676;BME280;4876;42.656;23.292;2023-04-05T01:55:27;93852.72;;;-0.02;89.52
9676;BME280;4876;42.656;23.292;2023-04-05T01:57:54;93846.53;;;-0.06;89.29
9676;BME280;4876;42.656;23.292;2023-04-05T02:00:21;93832.81;;;-0.12;89.62
9676;BME280;4876;42.656;23.292;2023-04-05T02:02:50;93848.31;;;-0.02;89.49
9676;BME280;4876;42.656;23.292;2023-04-05T02:05:17;93831.78;;;-0.06;89.62
9676;BME280;4876;42.656;23.292;2023-04-05T02:07:44;93856.09;;;0.04;89.79
9676;BME280;4876;42.656;23.292;2023-04-05T02:10:10;93860.78;;;0.07;89.12
9676;BME280;4876;42.656;23.292;2023-04-05T02:12:37;93861.28;;;0.14;88.00
9676;BME280;4876;42.656;23.292;2023-04-05T02:15:05;93856.13;;;0.19;88.02
9676;BME280;4876;42.656;23.292;2023-04-05T02:17:32;93858.22;;;0.32;88.18
9676;BME280;4876;42.656;23.292;2023-04-05T02:20:05;93854.84;;;0.37;87.87
9676;BME280;4876;42.656;23.292;2023-04-05T02:22:33;93860.00;;;0.37;87.12
9676;BME280;4876;42.656;23.292;2023-04-05T02:25:01;93859.50;;;0.30;87.38
9676;BME280;4876;42.656;23.292;2023-04-05T02:27:28;93859.25;;;0.36;87.20
9676;BME280;4876;42.656;23.292;2023-04-05T02:29:55;93855.88;;;0.25;87.46
9676;BME280;4876;42.656;23.292;2023-04-05T02:32:22;93856.66;;;0.21;87.13
9676;BME280;4876;42.656;23.292;2023-04-05T02:34:48;93852.53;;;0.25;87.09
9676;BME280;4876;42.656;23.292;2023-04-05T02:37:18;93858.44;;;0.15;87.78
9676;BME280;4876;42.656;23.292;2023-04-05T02:39:45;93851.19;;;0.17;87.85
9676;BME280;4876;42.656;23.292;2023-04-05T02:42:12;93853.78;;;0.22;88.33
9676;BME280;4876;42.656;23.292;2023-04-05T02:44:39;93841.66;;;0.28;88.33
9676;BME280;4876;42.656;23.292;2023-04-05T02:47:06;93843.72;;;0.26;87.31
9676;BME280;4876;42.656;23.292;2023-04-05T02:49:32;93845.25;;;0.17;87.40
9676;BME280;4876;42.656;23.292;2023-04-05T02:51:59;93850.44;;;0.17;87.37
9676;BME280;4876;42.656;23.292;2023-04-05T02:54:27;93849.94;;;0.20;87.75
9676;BME280;4876;42.656;23.292;2023-04-05T02:56:54;93849.41;;;0.28;87.27
9676;BME280;4876;42.656;23.292;2023-04-05T02:59:22;93839.84;;;0.23;86.42
9676;BME280;4876;42.656;23.292;2023-04-05T03:01:49;93848.91;;;0.26;86.10
9676;BME280;4876;42.656;23.292;2023-04-05T03:04:16;93847.34;;;0.35;85.98
9676;BME280;4876;42.656;23.292;2023-04-05T03:06:43;93847.88;;;0.27;85.57
9676;BME280;4876;42.656;23.292;2023-04-05T03:09:13;93857.94;;;0.13;86.71
9676;BME280;4876;42.656;23.292;2023-04-05T03:11:41;93848.63;;;0.22;87.05
9676;BME280;4876;42.656;23.292;2023-04-05T03:14:08;93852.75;;;0.23;86.09
9676;BME280;4876;42.656;23.292;2023-04-05T03:16:36;93853.00;;;0.12;86.07
9676;BME280;4876;42.656;23.292;2023-04-05T03:19:04;93848.88;;;0.21;85.95
9676;BME280;4876;42.656;23.292;2023-04-05T03:21:31;93847.06;;;0.16;86.14
9676;BME280;4876;42.656;23.292;2023-04-05T03:23:59;93844.25;;;0.28;86.17
9676;BME280;4876;42.656;23.292;2023-04-05T03:26:26;93851.50;;;0.26;86.33
9676;BME280;4876;42.656;23.292;2023-04-05T03:28:54;93851.50;;;0.41;85.78
9676;BME280;4876;42.656;23.292;2023-04-05T03:31:21;93850.94;;;0.24;86.15
9676;BME280;4876;42.656;23.292;2023-04-05T03:33:48;93839.59;;;0.20;86.58
9676;BME280;4876;42.656;23.292;2023-04-05T03:36:15;93844.50;;;0.21;87.36
9676;BME280;4876;42.656;23.292;2023-04-05T03:38:44;93849.94;;;0.20;87.87
9676;BME280;4876;42.656;23.292;2023-04-05T03:41:11;93847.81;;;0.12;89.04
9676;BME280;4876;42.656;23.292;2023-04-05T03:43:37;93853.28;;;0.15;88.61
9676;BME280;4876;42.656;23.292;2023-04-05T03:46:06;93842.66;;;0.12;89.15
9676;BME280;4876;42.656;23.292;2023-04-05T03:48:33;93861.84;;;0.31;89.03
9676;BME280;4876;42.656;23.292;2023-04-05T03:50:59;93855.38;;;0.34;90.70
9676;BME280;4876;42.656;23.292;2023-04-05T03:53:26;93857.94;;;0.13;92.98
9676;BME280;4876;42.656;23.292;2023-04-05T03:55:53;93864.66;;;0.14;94.29
9676;BME280;4876;42.656;23.292;2023-04-05T03:58:20;93872.66;;;0.18;95.24
9676;BME280;4876;42.656;23.292;2023-04-05T04:00:47;93853.75;;;-0.08;95.73
9676;BME280;4876;42.656;23.292;2023-04-05T04:03:16;93869.53;;;0.06;95.29
9676;BME280;4876;42.656;23.292;2023-04-05T04:05:43;93865.44;;;0.20;94.60
9676;BME280;4876;42.656;23.292;2023-04-05T04:08:10;93874.19;;;0.09;93.84
9676;BME280;4876;42.656;23.292;2023-04-05T04:10:37;93876.28;;;0.07;94.20
9676;BME280;4876;42.656;23.292;2023-04-05T04:13:04;93834.66;;;0.03;93.44
9676;BME280;4876;42.656;23.292;2023-04-05T04:15:31;93875.75;;;0.15;92.42
9676;BME280;4876;42.656;23.292;2023-04-05T04:17:58;93869.53;;;0.11;91.65
9676;BME280;4876;42.656;23.292;2023-04-05T04:20:26;93870.59;;;0.15;90.89
9676;BME280;4876;42.656;23.292;2023-04-05T04:22:53;93881.19;;;0.23;91.02
9676;BME280;4876;42.656;23.292;2023-04-05T04:25:19;93863.66;;;0.25;90.13
9676;BME280;4876;42.656;23.292;2023-04-05T04:27:46;93887.44;;;0.38;89.13
9676;BME280;4876;42.656;23.292;2023-04-05T04:30:14;93878.38;;;0.35;89.52
9676;BME280;4876;42.656;23.292;2023-04-05T04:32:42;93881.47;;;0.27;89.43
9676;BME280;4876;42.656;23.292;2023-04-05T04:35:20;93857.66;;;0.10;89.64
9676;BME280;4876;42.656;23.292;2023-04-05T04:37:53;93883.53;;;0.35;89.30
9676;BME280;4876;42.656;23.292;2023-04-05T04:40:26;93874.75;;;0.36;88.09
9676;BME280;4876;42.656;23.292;2023-04-05T04:42:54;93876.84;;;0.39;85.46
9676;BME280;4876;42.656;23.292;2023-04-05T04:45:23;93885.38;;;0.40;84.93
9676;BME280;4876;42.656;23.292;2023-04-05T04:47:50;93885.13;;;0.57;83.88
9676;BME280;4876;42.656;23.292;2023-04-05T04:50:19;93888.22;;;0.48;82.11
9676;BME280;4876;42.656;23.292;2023-04-05T04:52:46;93892.91;;;0.57;82.84
9676;BME280;4876;42.656;23.292;2023-04-05T04:55:14;93899.09;;;0.56;82.31
9676;BME280;4876;42.656;23.292;2023-04-05T04:57:42;93898.84;;;0.72;85.46
9676;BME280;4876;42.656;23.292;2023-04-05T05:00:09;93894.97;;;0.75;82.33
9676;BME280;4876;42.656;23.292;2023-04-05T05:02:41;93893.91;;;0.61;83.09
9676;BME280;4876;42.656;23.292;2023-04-05T05:05:09;93890.81;;;0.64;82.62
9676;BME280;4876;42.656;23.292;2023-04-05T05:07:37;93894.19;;;0.69;82.57
9676;BME280;4876;42.656;23.292;2023-04-05T05:10:06;93890.56;;;0.75;83.25
9676;BME280;4876;42.656;23.292;2023-04-05T05:12:36;93894.19;;;0.69;83.50
9676;BME280;4876;42.656;23.292;2023-04-05T05:15:04;93892.09;;;0.66;84.19
9676;BME280;4876;42.656;23.292;2023-04-05T05:17:31;93890.56;;;0.45;85.21
9676;BME280;4876;42.656;23.292;2023-04-05T05:19:59;93906.34;;;0.64;86.10
9676;BME280;4876;42.656;23.292;2023-04-05T05:22:26;93904.25;;;0.61;86.74
9676;BME280;4876;42.656;23.292;2023-04-05T05:24:53;93903.50;;;0.70;86.79
9676;BME280;4876;42.656;23.292;2023-04-05T05:27:20;93905.28;;;0.49;88.06
9676;BME280;4876;42.656;23.292;2023-04-05T05:29:48;93889.00;;;0.44;88.80
9676;BME280;4876;42.656;23.292;2023-04-05T05:32:15;93901.69;;;0.66;89.37
9676;BME280;4876;42.656;23.292;2023-04-05T05:34:44;93897.56;;;0.70;89.25
9676;BME280;4876;42.656;23.292;2023-04-05T05:37:13;93901.19;;;0.69;89.66
9676;BME280;4876;42.656;23.292;2023-04-05T05:39:41;93901.72;;;0.81;88.54
9676;BME280;4876;42.656;23.292;2023-04-05T05:42:09;93906.06;;;0.45;86.46
9676;BME280;4876;42.656;23.292;2023-04-05T05:44:36;93904.53;;;0.59;85.37
9676;BME280;4876;42.656;23.292;2023-04-05T05:47:04;93890.31;;;0.77;83.38
9676;BME280;4876;42.656;23.292;2023-04-05T05:49:31;93891.34;;;0.91;82.72
9676;BME280;4876;42.656;23.292;2023-04-05T05:51:58;93881.75;;;0.87;80.93
9676;BME280;4876;42.656;23.292;2023-04-05T05:54:25;93894.44;;;1.03;79.36
9676;BME280;4876;42.656;23.292;2023-04-05T05:56:51;93890.25;;;1.28;78.93
9676;BME280;4876;42.656;23.292;2023-04-05T05:59:18;93889.69;;;1.41;76.47
9676;BME280;4876;42.656;23.292;2023-04-05T06:01:45;93889.97;;;1.40;75.62
9676;BME280;4876;42.656;23.292;2023-04-05T06:04:13;93892.81;;;1.43;74.65
9676;BME280;4876;42.656;23.292;2023-04-05T06:06:40;93898.16;;;1.67;74.59
9676;BME280;4876;42.656;23.292;2023-04-05T06:09:08;93898.94;;;1.68;73.19
9676;BME280;4876;42.656;23.292;2023-04-05T06:11:35;93898.72;;;1.54;73.20
9676;BME280;4876;42.656;23.292;2023-04-05T06:14:02;93891.22;;;1.63;73.62
9676;BME280;4876;42.656;23.292;2023-04-05T06:16:29;93900.81;;;1.62;73.67
9676;BME280;4876;42.656;23.292;2023-04-05T06:18:56;93903.13;;;1.53;73.55
9676;BME280;4876;42.656;23.292;2023-04-05T06:21:24;93905.16;;;1.67;74.11
9676;BME280;4876;42.656;23.292;2023-04-05T06:23:51;93909.84;;;1.70;73.43
9676;BME280;4876;42.656;23.292;2023-04-05T06:26:19;93909.06;;;1.74;73.05
9676;BME280;4876;42.656;23.292;2023-04-05T06:28:47;93907.75;;;1.67;72.45
9676;BME280;4876;42.656;23.292;2023-04-05T06:31:14;93902.34;;;1.63;72.18
9676;BME280;4876;42.656;23.292;2023-04-05T06:33:41;93906.97;;;1.76;73.13
9676;BME280;4876;42.656;23.292;2023-04-05T06:36:09;93907.13;;;2.00;72.50
9676;BME280;4876;42.656;23.292;2023-04-05T06:38:37;93919.72;;;2.22;71.72
9676;BME280;4876;42.656;23.292;2023-04-05T06:41:04;93922.84;;;2.24;70.23
9676;BME280;4876;42.656;23.292;2023-04-05T06:43:31;93917.41;;;2.21;69.51
9676;BME280;4876;42.656;23.292;2023-04-05T06:45:58;93926.72;;;2.27;69.16
9676;BME280;4876;42.656;23.292;2023-04-05T06:48:25;93930.00;;;2.42;68.99
9676;BME280;4876;42.656;23.292;2023-04-05T06:50:57;93926.81;;;2.56;69.74
9676;BME280;4876;42.656;23.292;2023-04-05T06:53:24;93928.97;;;2.83;69.93
9676;BME280;4876;42.656;23.292;2023-04-05T06:55:53;93925.09;;;2.80;67.48
9676;BME280;4876;42.656;23.292;2023-04-05T06:58:21;93926.63;;;2.86;66.68
9676;BME280;4876;42.656;23.292;2023-04-05T07:00:48;93941.41;;;2.86;67.19
9676;BME280;4876;42.656;23.292;2023-04-05T07:03:14;93949.69;;;2.93;67.14
9676;BME280;4876;42.656;23.292;2023-04-05T07:05:49;93959.59;;;2.86;66.37
9676;BME280;4876;42.656;23.292;2023-04-05T07:08:16;93942.59;;;2.64;66.71
9676;BME280;4876;42.656;23.292;2023-04-05T07:10:47;93956.63;;;2.58;67.19
9676;BME280;4876;42.656;23.292;2023-04-05T07:13:22;93934.59;;;2.56;68.96
9676;BME280;4876;42.656;23.292;2023-04-05T07:15:49;93952.13;;;2.74;68.49
9676;BME280;4876;42.656;23.292;2023-04-05T07:18:17;93947.00;;;2.64;67.47
9676;BME280;4876;42.656;23.292;2023-04-05T07:20:46;93955.13;;;2.52;66.99
9676;BME280;4876;42.656;23.292;2023-04-05T07:23:13;93969.88;;;2.57;67.18
9676;BME280;4876;42.656;23.292;2023-04-05T07:25:40;93932.38;;;2.34;66.94
9676;BME280;4876;42.656;23.292;2023-04-05T07:28:07;93969.38;;;2.55;67.85
9676;BME280;4876;42.656;23.292;2023-04-05T07:30:35;93962.69;;;2.43;67.60
9676;BME280;4876;42.656;23.292;2023-04-05T07:33:02;93967.78;;;2.59;66.84
9676;BME280;4876;42.656;23.292;2023-04-05T07:35:29;93970.09;;;2.65;68.00
9676;BME280;4876;42.656;23.292;2023-04-05T07:37:56;93976.16;;;2.46;67.55
9676;BME280;4876;42.656;23.292;2023-04-05T07:40:23;93975.38;;;2.50;67.65
9676;BME280;4876;42.656;23.292;2023-04-05T07:42:49;93976.66;;;2.53;67.64
9676;BME280;4876;42.656;23.292;2023-04-05T07:45:16;93980.84;;;2.49;67.28
9676;BME280;4876;42.656;23.292;2023-04-05T07:47:44;93978.97;;;2.54;67.04
9676;BME280;4876;42.656;23.292;2023-04-05T07:50:11;93982.13;;;2.46;67.85
9676;BME280;4876;42.656;23.292;2023-04-05T07:52:39;93983.19;;;2.40;67.81
9676;BME280;4876;42.656;23.292;2023-04-05T07:55:07;93988.41;;;2.30;69.00
9676;BME280;4876;42.656;23.292;2023-04-05T07:57:34;93985.84;;;2.30;68.30
9676;BME280;4876;42.656;23.292;2023-04-05T08:00:01;93995.25;;;2.10;68.38
9676;BME280;4876;42.656;23.292;2023-04-05T08:02:29;93993.66;;;2.25;68.46
9676;BME280;4876;42.656;23.292;2023-04-05T08:04:58;93995.28;;;2.00;69.68
9676;BME280;4876;42.656;23.292;2023-04-05T08:07:24;93992.22;;;1.88;69.29
9676;BME280;4876;42.656;23.292;2023-04-05T08:09:51;93992.50;;;1.76;70.50
9676;BME280;4876;42.656;23.292;2023-04-05T08:12:21;94001.81;;;1.87;70.40
9676;BME280;4876;42.656;23.292;2023-04-05T08:14:48;94002.59;;;1.83;70.16
9676;BME280;4876;42.656;23.292;2023-04-05T08:17:15;94004.16;;;1.79;71.03
9676;BME280;4876;42.656;23.292;2023-04-05T08:19:42;94013.47;;;1.90;71.56
9676;BME280;4876;42.656;23.292;2023-04-05T08:22:10;94007.00;;;1.67;71.74
9676;BME280;4876;42.656;23.292;2023-04-05T08:24:37;94003.38;;;1.78;72.60
9676;BME280;4876;42.656;23.292;2023-04-05T08:27:04;94010.09;;;1.95;72.37
9676;BME280;4876;42.656;23.292;2023-04-05T08:29:31;94015.78;;;1.97;70.91
9676;BME280;4876;42.656;23.292;2023-04-05T08:31:57;94014.72;;;1.98;71.90
9676;BME280;4876;42.656;23.292;2023-04-05T08:34:24;94014.50;;;1.89;71.83
9676;BME280;4876;42.656;23.292;2023-04-05T08:36:51;94012.97;;;1.88;72.72
9676;BME280;4876;42.656;23.292;2023-04-05T08:39:19;94020.41;;;2.05;71.31
9676;BME280;4876;42.656;23.292;2023-04-05T08:41:52;94017.38;;;1.82;70.72
9676;BME280;4876;42.656;23.292;2023-04-05T08:44:22;93995.91;;;1.56;71.87
9676;BME280;4876;42.656;23.292;2023-04-05T08:46:52;94017.09;;;1.79;72.04
9676;BME280;4876;42.656;23.292;2023-04-05T08:49:22;94014.50;;;1.89;72.35
9676;BME280;4876;42.656;23.292;2023-04-05T08:51:49;94024.88;;;1.84;73.00
9676;BME280;4876;42.656;23.292;2023-04-05T08:54:16;94030.56;;;2.01;71.25
9676;BME280;4876;42.656;23.292;2023-04-05T08:56:45;94023.28;;;1.98;70.59
9676;BME280;4876;42.656;23.292;2023-04-05T08:59:15;94028.66;;;2.27;69.74
9676;BME280;4876;42.656;23.292;2023-04-05T09:01:43;94033.00;;;2.42;69.32
9676;BME280;4876;42.656;23.292;2023-04-05T09:04:14;94017.00;;;2.25;69.67
9676;BME280;4876;42.656;23.292;2023-04-05T09:06:43;94038.72;;;2.39;69.23
9676;BME280;4876;42.656;23.292;2023-04-05T09:09:10;94047.59;;;2.23;68.36
9676;BME280;4876;42.656;23.292;2023-04-05T09:11:38;94044.00;;;2.08;69.50
9676;BME280;4876;42.656;23.292;2023-04-05T09:14:07;94051.28;;;2.11;69.81
9676;BME280;4876;42.656;23.292;2023-04-05T09:16:37;94048.94;;;2.05;71.14
9676;BME280;4876;42.656;23.292;2023-04-05T09:19:06;94041.13;;;2.20;71.65
9676;BME280;4876;42.656;23.292;2023-04-05T09:21:56;94048.84;;;2.35;71.28
9676;BME280;4876;42.656;23.292;2023-04-05T09:24:29;94042.88;;;2.35;72.22
9676;BME280;4876;42.656;23.292;2023-04-05T09:27:03;94044.38;;;2.56;72.97
9676;BME280;4876;42.656;23.292;2023-04-05T09:29:32;94042.31;;;2.48;74.15
9676;BME280;4876;42.656;23.292;2023-04-05T09:31:59;94034.56;;;2.43;74.88
9676;BME280;4876;42.656;23.292;2023-04-05T09:34:28;94035.59;;;2.42;73.00
9676;BME280;4876;42.656;23.292;2023-04-05T09:36:55;94043.91;;;2.44;72.64
9676;BME280;4876;42.656;23.292;2023-04-05T09:39:27;94031.44;;;2.46;72.73
9676;BME280;4876;42.656;23.292;2023-04-05T09:42:05;94036.63;;;2.41;73.53
9676;BME280;4876;42.656;23.292;2023-04-05T09:44:49;94041.31;;;2.49;73.19
9676;BME280;4876;42.656;23.292;2023-04-05T09:47:17;94041.06;;;2.40;73.59
9676;BME280;4876;42.656;23.292;2023-04-05T09:49:44;94022.13;;;2.35;73.73
9676;BME280;4876;42.656;23.292;2023-04-05T09:52:22;94024.81;;;2.14;74.29
9676;BME280;4876;42.656;23.292;2023-04-05T09:54:50;94037.97;;;2.33;74.07
9676;BME280;4876;42.656;23.292;2023-04-05T09:57:17;94030.97;;;2.34;74.19
9676;BME280;4876;42.656;23.292;2023-04-05T09:59:45;94037.13;;;2.48;73.36
9676;BME280;4876;42.656;23.292;2023-04-05T10:02:14;94027.47;;;2.64;71.49
9676;BME280;4876;42.656;23.292;2023-04-05T10:04:42;94037.28;;;2.72;69.13
9676;BME280;4876;42.656;23.292;2023-04-05T10:07:10;94026.59;;;2.79;66.68
9676;BME280;4876;42.656;23.292;2023-04-05T10:09:38;94032.53;;;2.84;67.78
9676;BME280;4876;42.656;23.292;2023-04-05T10:12:05;94025.13;;;2.67;67.29
9676;BME280;4876;42.656;23.292;2023-04-05T10:14:32;94030.94;;;2.44;66.86
9676;BME280;4876;42.656;23.292;2023-04-05T10:17:07;94040.47;;;2.59;67.28
9676;BME280;4876;42.656;23.292;2023-04-05T10:19:47;94038.94;;;2.48;67.72
9676;BME280;4876;42.656;23.292;2023-04-05T10:22:22;94036.22;;;2.08;69.49
9676;BME280;4876;42.656;23.292;2023-04-05T10:24:53;94052.03;;;2.17;69.46
9676;BME280;4876;42.656;23.292;2023-04-05T10:27:29;94023.28;;;1.98;70.54
9676;BME280;4876;42.656;23.292;2023-04-05T10:30:02;94039.38;;;2.05;69.66
9676;BME280;4876;42.656;23.292;2023-04-05T10:32:40;94031.03;;;2.19;69.44
9676;BME280;4876;42.656;23.292;2023-04-05T10:35:15;94039.59;;;2.09;70.12
9676;BME280;4876;42.656;23.292;2023-04-05T10:37:52;94047.38;;;2.19;70.02
9676;BME280;4876;42.656;23.292;2023-04-05T10:40:22;94029.69;;;2.36;69.45
9676;BME280;4876;42.656;23.292;2023-04-05T10:42:54;94037.25;;;2.18;69.42
9676;BME280;4876;42.656;23.292;2023-04-05T10:45:22;94038.84;;;2.03;71.01
9676;BME280;4876;42.656;23.292;2023-04-05T10:47:53;94041.84;;;2.36;70.82
9676;BME280;4876;42.656;23.292;2023-04-05T10:50:25;94039.50;;;2.45;69.62
9676;BME280;4876;42.656;23.292;2023-04-05T10:52:51;94053.03;;;2.31;69.33
9676;BME280;4876;42.656;23.292;2023-04-05T10:55:19;94041.13;;;2.30;70.52
9676;BME280;4876;42.656;23.292;2023-04-05T10:57:48;94049.03;;;2.54;70.10
9676;BME280;4876;42.656;23.292;2023-04-05T11:00:21;94048.34;;;2.33;69.73
9676;BME280;4876;42.656;23.292;2023-04-05T11:02:53;94054.31;;;2.29;68.75
9676;BME280;4876;42.656;23.292;2023-04-05T11:05:33;94044.00;;;2.19;69.06
9676;BME280;4876;42.656;23.292;2023-04-05T11:08:03;94047.66;;;2.12;68.28
9676;BME280;4876;42.656;23.292;2023-04-05T11:10:32;94050.25;;;2.02;69.29
9676;BME280;4876;42.656;23.292;2023-04-05T11:13:08;94058.53;;;2.20;69.25
9676;BME280;4876;42.656;23.292;2023-04-05T11:15:36;94061.09;;;2.25;69.96
9676;BME280;4876;42.656;23.292;2023-04-05T11:18:06;94054.31;;;2.39;69.69
9676;BME280;4876;42.656;23.292;2023-04-05T11:20:43;94057.88;;;2.48;69.59
9676;BME280;4876;42.656;23.292;2023-04-05T11:23:11;94053.72;;;2.52;69.30
9676;BME280;4876;42.656;23.292;2023-04-05T11:25:39;94053.72;;;2.57;67.98
9676;BME280;4876;42.656;23.292;2023-04-05T11:28:06;94036.09;;;2.49;68.73
9676;BME280;4876;42.656;23.292;2023-04-05T11:30:47;94049.75;;;2.70;67.46
9676;BME280;4876;42.656;23.292;2023-04-05T11:33:36;94060.03;;;2.31;67.34
9676;BME280;4876;42.656;23.292;2023-04-05T11:36:08;94056.81;;;2.54;68.81
9676;BME280;4876;42.656;23.292;2023-04-05T11:38:35;94052.19;;;2.51;68.86
9676;BME280;4876;42.656;23.292;2023-04-05T11:41:06;94051.03;;;2.73;68.03
9676;BME280;4876;42.656;23.292;2023-04-05T11:43:37;94050.88;;;2.54;69.53
9676;BME280;4876;42.656;23.292;2023-04-05T11:46:05;94043.84;;;2.54;69.27
9676;BME280;4876;42.656;23.292;2023-04-05T11:48:32;94057.25;;;2.82;67.74
9676;BME280;4876;42.656;23.292;2023-04-05T11:51:22;94053.63;;;2.73;68.52
9676;BME280;4876;42.656;23.292;2023-04-05T11:53:49;94044.75;;;2.84;67.69
9676;BME280;4876;42.656;23.292;2023-04-05T11:56:24;94048.41;;;2.83;67.96
9676;BME280;4876;42.656;23.292;2023-04-05T11:58:57;94054.66;;;2.77;68.40
9676;BME280;4876;42.656;23.292;2023-04-05T12:01:23;94050.69;;;2.94;68.54
9676;BME280;4876;42.656;23.292;2023-04-05T12:03:52;94041.50;;;3.07;67.63
9676;BME280;4876;42.656;23.292;2023-04-05T12:06:22;94038.34;;;3.15;67.96
9676;BME280;4876;42.656;23.292;2023-04-05T12:08:52;94036.66;;;2.95;67.69
9676;BME280;4876;42.656;23.292;2023-04-05T12:11:23;94047.28;;;2.99;67.22
9676;BME280;4876;42.656;23.292;2023-04-05T12:13:53;94039.56;;;2.84;67.21
9676;BME280;4876;42.656;23.292;2023-04-05T12:16:19;94055.09;;;2.94;68.21
9676;BME280;4876;42.656;23.292;2023-04-05T12:18:52;94046.81;;;2.92;68.24
9676;BME280;4876;42.656;23.292;2023-04-05T12:21:19;94050.53;;;3.15;68.49
9676;BME280;4876;42.656;23.292;2023-04-05T12:23:48;94054.59;;;2.92;67.88
9676;BME280;4876;42.656;23.292;2023-04-05T12:26:16;94051.41;;;2.56;69.43
9676;BME280;4876;42.656;23.292;2023-04-05T12:28:50;94049.56;;;2.61;69.83
9676;BME280;4876;42.656;23.292;2023-04-05T12:31:17;94055.28;;;2.53;70.63
9676;BME280;4876;42.656;23.292;2023-04-05T12:33:44;94036.31;;;2.58;71.13
9676;BME280;4876;42.656;23.292;2023-04-05T12:36:12;94032.34;;;2.76;70.70
9676;BME280;4876;42.656;23.292;2023-04-05T12:38:40;94030.31;;;2.67;70.11
9676;BME280;4876;42.656;23.292;2023-04-05T12:41:08;94037.75;;;2.79;70.47
9676;BME280;4876;42.656;23.292;2023-04-05T12:43:38;94029.25;;;2.74;69.48
9676;BME280;4876;42.656;23.292;2023-04-05T12:46:08;94039.56;;;2.84;69.01
9676;BME280;4876;42.656;23.292;2023-04-05T12:48:36;94045.06;;;2.77;69.51
9676;BME280;4876;42.656;23.292;2023-04-05T12:51:15;94045.81;;;2.78;68.78
9676;BME280;4876;42.656;23.292;2023-04-05T12:53:45;94045.09;;;2.67;69.41
9676;BME280;4876;42.656;23.292;2023-04-05T12:56:14;94059.19;;;2.56;70.59
9676;BME280;4876;42.656;23.292;2023-04-05T12:58:41;94052.38;;;2.65;71.18
9676;BME280;4876;42.656;23.292;2023-04-05T13:01:08;94059.69;;;2.53;71.86
9676;BME280;4876;42.656;23.292;2023-04-05T13:03:37;94058.34;;;2.65;71.81
9676;BME280;4876;42.656;23.292;2023-04-05T13:06:04;94055.00;;;2.60;71.64
9676;BME280;4876;42.656;23.292;2023-04-05T13:08:30;94064.28;;;2.71;70.00
9676;BME280;4876;42.656;23.292;2023-04-05T13:10:57;94064.59;;;2.64;69.28
9676;BME280;4876;42.656;23.292;2023-04-05T13:13:25;94065.63;;;2.68;69.43
9676;BME280;4876;42.656;23.292;2023-04-05T13:15:52;94047.50;;;2.48;69.11
9676;BME280;4876;42.656;23.292;2023-04-05T13:18:19;94072.38;;;2.64;68.97
9676;BME280;4876;42.656;23.292;2023-04-05T13:20:46;94068.16;;;2.79;68.50
9676;BME280;4876;42.656;23.292;2023-04-05T13:23:13;94066.72;;;2.42;69.07
9676;BME280;4876;42.656;23.292;2023-04-05T13:25:40;94071.38;;;2.55;68.42
9676;BME280;4876;42.656;23.292;2023-04-05T13:28:08;94069.84;;;2.44;68.72
9676;BME280;4876;42.656;23.292;2023-04-05T13:30:37;94072.38;;;2.59;68.97
9676;BME280;4876;42.656;23.292;2023-04-05T13:33:04;94058.91;;;2.52;69.82